• Join FlightAware (Why Join?)
  • Login
  • US Flag 
06:24AM EDT


 

Airport Tracker/Info


-or-


 

Live Flight TrackerFlight Track Log ✈ SQH111 ✈ 03-May-2012 ✈ KMCI - KHRO

Flight Track Log - Related Links

Times and Time Zones

All times are in EDT time to prevent confusion due to time zone crossing. See the SQH111 flight status page for this flight to view local times or setup timezone preferences in your user account.

Time Position Orientation Groundspeed Altitude Reporting Facility
EDT Latitude Longitude Course Direction KTS MPH feet Rate Location/Type
08:35AM 39.3000 -94.7000 360° North 103 119 1,600  Level Kansas City TRACON
08:36AM 39.3167 -94.7000 90° East 113 130 2,500 1,620 Climbing Kansas City TRACON
08:37AM 39.3167 -94.6500 116° Southeast 159 183 4,200 1,560 Climbing Kansas City TRACON
08:38AM 39.2956 -94.5944 106° East 165 190 5,500 1,500 Climbing Kansas City Center
08:39AM 39.2808 -94.5300 118° Southeast 193 222 7,000 1,560 Climbing Kansas City Center
08:40AM 39.2622 -94.4844 174° South 184 212 8,700 1,740 Climbing Kansas City Center
08:41AM 39.2206 -94.4792 174° South 130 150 10,500 1,680 Climbing Kansas City Center
08:42AM 39.1808 -94.4739 174° South 137 158 12,100 1,620 Climbing Kansas City Center
08:43AM 39.1411 -94.4686 171° South 150 173 13,800 1,500 Climbing Kansas City Center
08:44AM 39.0994 -94.4606 177° South 157 181 15,100 1,440 Climbing Kansas City Center
08:45AM 39.0517 -94.4578 174° South 166 191 16,700 900 Climbing Kansas City Center
08:46AM 38.9953 -94.4500 176° South 180 207 17,000 120 Climbing Kansas City Center
08:47AM 38.9328 -94.4444 157° South 217 250 17,000  Level Kansas City Center
08:48AM 38.8744 -94.4128 157° South 242 278 17,000  Level Kansas City Center
08:49AM 38.8014 -94.3728 160° South 257 296 17,000  Level Kansas City Center
08:50AM 38.7325 -94.3411 156° South 257 296 17,000  Level Kansas City Center
08:51AM 38.6678 -94.3039 160° South 257 296 17,000  Level Kansas City Center
08:52AM 38.6053 -94.2750 159° South 257 296 17,000  Level Kansas City Center
08:53AM 38.5281 -94.2381 158° South 263 303 17,000  Level Kansas City Center
08:54AM 38.4611 -94.2036 159° South 268 308 17,000  Level Kansas City Center
08:55AM 38.3922 -94.1694 158° South 273 314 17,000  Level Kansas City Center
08:56AM 38.3297 -94.1381 160° South 271 312 17,000  Level Kansas City Center
08:57AM 38.2525 -94.1014 161° South 271 312 17,000  Level Kansas City Center
08:58AM 38.1919 -94.0753 158° South 266 306 17,000  Level Kansas City Center
08:59AM 38.1269 -94.0414 160° South 266 306 17,000  Level Kansas City Center
09:00AM 38.0539 -94.0075 160° South 271 312 17,000  Level Kansas City Center
09:01AM 37.9869 -93.9764 158° South 266 306 17,000  Level Kansas City Center
09:02AM 37.9203 -93.9428 159° South 266 306 17,100  Climbing Kansas City Center
09:03AM 37.8511 -93.9092 159° South 266 306 17,100 -60 Level Kansas City Center
09:04AM 37.7822 -93.8756 158° South 266 306 17,000 -60 Descending Kansas City Center
09:05AM 37.7153 -93.8419 160° South 266 306 17,000  Level Kansas City Center
09:06AM 37.6461 -93.8108 158° South 266 306 17,000  Level Kansas City Center
09:07AM 37.5814 -93.7775 161° South 266 306 17,000  Level Kansas City Center
09:08AM 37.5122 -93.7467 158° South 266 306 17,000  Level Kansas City Center
09:09AM 37.4475 -93.7133 160° South 266 306 17,000  Level Kansas City Center
09:10AM 37.3825 -93.6828 160° South 261 300 17,000 -240 Level Kansas City Center
09:11AM 37.3114 -93.6494 158° South 261 300 16,600 -720 Descending Kansas City Center
09:12AM 37.2403 -93.6139 161° South 266 306 15,600 -1,020 Descending Kansas City Center
09:13AM 37.1650 -93.5808 158° South 272 313 14,600 -1,020 Descending Kansas City Center
09:14AM 37.0917 -93.5428 161° South 277 319 13,600 -1,020 Descending Kansas City Center
09:15AM 37.0161 -93.5097 159° South 282 325 12,600 -1,020 Descending Kansas City Center
09:16AM 36.9428 -93.4744 158° South 288 331 11,600 -1,020 Descending Kansas City Center
09:17AM 36.8717 -93.4389 162° South 288 331 10,600 -960 Descending Kansas City Center
09:18AM 36.7964 -93.4089 158° South 288 331 9,700 -960 Descending Kansas City Center
09:19AM 36.7269 -93.3736 161° South 288 331 8,700 -900 Descending Kansas City Center
09:20AM 36.6475 -93.3386 159° South 282 325 7,900 -1,020 Descending Kansas City Center
09:21AM 36.5908 -93.3108 157° South 270 311 6,700 -1,020 Descending Kansas City Center
09:22AM 36.5083 -93.2667 158° South 262 302 5,700 -780 Descending Memphis Center
09:23AM 36.4403 -93.2331 158° South 262 302 5,000 -360 Descending Memphis Center
09:24AM 36.3681 -93.1972 159° South 262 302 5,000  Level Memphis Center
09:25AM 36.2961 -93.1636 158° South 262 302 5,000  Level Memphis Center
09:26AM 36.2528 -93.1417 360° North 262 302 5,000  Level Memphis Center
09:27AM 36.2528 -93.1417 360° North 262 302 5,000  Level Memphis Center
09:28AM 36.2528 -93.1417 360° North 262 302 5,000  Level Memphis Center
09:29AM 36.2528 -93.1417 360° North 262 302 5,000  Level Memphis Center
09:30AM 36.2528 -93.1417 360° North 262 302 5,000  Level Memphis Center
09:31AM 36.2528 -93.1417 360° North 262 302 5,000  Level Memphis Center
09:32AM 36.2528 -93.1417 360° North 262 302 5,000  Level Memphis Center
09:33AM 36.2528 -93.1417 360° North 262 302 5,000  Level Memphis Center
09:34AM 36.2528 -93.1417 360° North 262 302 5,000  Level Memphis Center